createdAt,value
2022-09-10T00:01:30.691Z,14.60
2022-09-10T00:03:59.043Z,14.70
2022-09-10T00:06:27.877Z,14.80
2022-09-10T00:08:57.729Z,14.80
2022-09-10T00:11:30.132Z,14.80
2022-09-10T00:13:58.385Z,14.80
2022-09-10T00:16:27.598Z,14.90
2022-09-10T00:18:56.045Z,14.80
2022-09-10T00:21:23.385Z,14.80
2022-09-10T00:23:50.816Z,14.80
2022-09-10T00:26:27.363Z,14.80
2022-09-10T00:28:56.402Z,14.70
2022-09-10T00:31:24.040Z,14.80
2022-09-10T00:33:52.460Z,14.80
2022-09-10T00:36:26.034Z,14.80
2022-09-10T00:38:54.904Z,14.80
2022-09-10T00:41:24.739Z,14.80
2022-09-10T00:44:00.895Z,14.90
2022-09-10T00:46:37.826Z,14.80
2022-09-10T00:49:16.618Z,14.90
2022-09-10T00:51:45.781Z,14.90
2022-09-10T00:54:14.953Z,14.90
2022-09-10T00:56:43.075Z,14.90
2022-09-10T00:59:14.232Z,14.80
2022-09-10T01:01:42.417Z,14.80
2022-09-10T01:04:10.719Z,14.80
2022-09-10T01:06:40.388Z,14.80
2022-09-10T01:09:09.105Z,14.70
2022-09-10T01:11:44.976Z,14.70
2022-09-10T01:14:38.156Z,14.60
2022-09-10T01:17:10.947Z,14.50
2022-09-10T01:19:44.182Z,14.60
2022-09-10T01:22:35.941Z,14.60
2022-09-10T01:25:33.320Z,14.70
2022-09-10T01:28:07.006Z,14.80
2022-09-10T01:30:37.975Z,14.90
2022-09-10T01:33:20.324Z,15.00
2022-09-10T01:35:57.745Z,15.00
2022-09-10T01:38:38.435Z,15.10
2022-09-10T01:41:06.945Z,15.10
2022-09-10T01:43:38.630Z,15.10
2022-09-10T01:46:14.779Z,15.20
2022-09-10T01:48:50.911Z,15.20
2022-09-10T01:51:20.896Z,15.20
2022-09-10T01:54:11.329Z,15.20
2022-09-10T01:56:51.119Z,15.20
2022-09-10T01:59:37.640Z,15.20
2022-09-10T02:02:19.619Z,15.30
2022-09-10T02:04:50.397Z,15.30
2022-09-10T02:07:22.636Z,15.20
2022-09-10T02:09:52.240Z,15.30
2022-09-10T02:12:21.892Z,15.30
2022-09-10T02:15:08.527Z,15.20
2022-09-10T02:17:57.261Z,15.20
2022-09-10T02:20:25.028Z,15.20
2022-09-10T02:22:58.489Z,15.20
2022-09-10T02:25:28.347Z,15.20
2022-09-10T02:27:58.023Z,15.20
2022-09-10T02:30:25.411Z,15.20
2022-09-10T02:32:52.710Z,15.20
2022-09-10T02:35:21.176Z,15.20
2022-09-10T02:37:50.742Z,15.20
2022-09-10T02:40:21.728Z,15.10
2022-09-10T02:42:49.003Z,15.20
2022-09-10T02:45:21.768Z,15.20
2022-09-10T02:47:49.035Z,15.20
2022-09-10T02:50:17.579Z,15.20
2022-09-10T02:52:46.195Z,15.20
2022-09-10T02:55:14.059Z,15.30
2022-09-10T02:57:43.174Z,15.20
2022-09-10T03:00:11.558Z,15.20
2022-09-10T03:02:39.064Z,15.20
2022-09-10T03:05:07.612Z,15.20
2022-09-10T03:07:34.911Z,15.20
2022-09-10T03:10:02.152Z,15.20
2022-09-10T03:12:29.491Z,15.30
2022-09-10T03:14:59.037Z,15.30
2022-09-10T03:17:26.966Z,15.30
2022-09-10T03:19:54.746Z,15.40
2022-09-10T03:22:22.294Z,15.40
2022-09-10T03:24:49.660Z,15.40
2022-09-10T03:27:18.104Z,15.40
2022-09-10T03:29:45.477Z,15.40
2022-09-10T03:32:14.449Z,15.50
2022-09-10T03:34:41.827Z,15.40
2022-09-10T03:37:09.086Z,15.40
2022-09-10T03:39:36.635Z,15.40
2022-09-10T03:42:05.117Z,15.40
2022-09-10T03:44:33.603Z,15.40
2022-09-10T03:47:01.798Z,15.50
2022-09-10T03:49:29.529Z,15.40
2022-09-10T03:51:56.873Z,15.40
2022-09-10T03:54:24.867Z,15.40
2022-09-10T03:56:52.226Z,15.40
2022-09-10T03:59:19.474Z,15.30
2022-09-10T04:01:47.979Z,15.20
2022-09-10T04:04:15.356Z,15.10
2022-09-10T04:06:42.645Z,15.00
2022-09-10T04:09:11.085Z,15.00
2022-09-10T04:11:39.399Z,14.90
2022-09-10T04:14:07.810Z,14.90
2022-09-10T04:16:38.271Z,14.90
2022-09-10T04:19:08.567Z,14.90
2022-09-10T04:21:36.630Z,14.80
2022-09-10T04:24:04.253Z,14.90
2022-09-10T04:26:31.575Z,14.80
2022-09-10T04:28:59.342Z,14.80
2022-09-10T04:31:26.726Z,14.80
2022-09-10T04:34:01.355Z,14.80
2022-09-10T04:36:29.157Z,14.80
2022-09-10T04:38:56.601Z,14.80
2022-09-10T04:41:24.059Z,14.80
2022-09-10T04:43:52.476Z,14.80
2022-09-10T04:46:19.923Z,14.80
2022-09-10T04:48:50.911Z,14.80
2022-09-10T04:51:21.554Z,14.80
2022-09-10T04:53:52.319Z,14.80
2022-09-10T04:56:22.522Z,14.90
2022-09-10T04:58:50.323Z,14.90
2022-09-10T05:01:17.945Z,14.90
2022-09-10T05:03:47.018Z,14.90
2022-09-10T05:06:14.694Z,14.90
2022-09-10T05:08:42.024Z,14.80
2022-09-10T05:11:11.429Z,14.80
2022-09-10T05:13:39.429Z,14.80
2022-09-10T05:16:07.672Z,14.80
2022-09-10T05:18:35.475Z,14.80
2022-09-10T05:21:05.274Z,14.80
2022-09-10T05:23:33.745Z,14.80
2022-09-10T05:26:02.110Z,14.80
2022-09-10T05:28:30.566Z,14.80
2022-09-10T05:30:58.185Z,14.90
2022-09-10T05:33:27.738Z,14.90
2022-09-10T05:35:55.424Z,14.90
2022-09-10T05:38:24.721Z,15.00
2022-09-10T05:40:52.257Z,15.00
2022-09-10T05:43:20.958Z,15.00
2022-09-10T05:45:49.004Z,15.10
2022-09-10T05:48:16.375Z,15.10
2022-09-10T05:50:45.449Z,15.00
2022-09-10T05:53:13.690Z,15.00
2022-09-10T05:55:41.077Z,15.10
2022-09-10T05:58:08.355Z,15.10
2022-09-10T06:00:38.603Z,15.10
2022-09-10T06:03:06.151Z,15.00
2022-09-10T06:05:53.101Z,15.10
2022-09-10T06:08:24.870Z,15.00
2022-09-10T06:11:00.245Z,15.00
2022-09-10T06:13:30.627Z,15.00
2022-09-10T06:15:59.348Z,15.10
2022-09-10T06:18:28.882Z,15.10
2022-09-10T06:21:08.873Z,15.10
2022-09-10T06:23:36.197Z,15.10
2022-09-10T06:26:14.779Z,15.10
2022-09-10T06:28:43.263Z,15.10
2022-09-10T06:31:14.257Z,15.10
2022-09-10T06:33:42.954Z,15.10
2022-09-10T06:36:11.270Z,15.10
2022-09-10T06:38:38.864Z,15.10
2022-09-10T06:41:11.941Z,15.10
2022-09-10T06:43:44.207Z,15.20
2022-09-10T06:49:11.689Z,15.20
2022-09-10T06:51:39.802Z,15.20
2022-09-10T06:54:09.262Z,15.20
2022-09-10T06:56:38.021Z,15.20
2022-09-10T06:59:05.752Z,15.30
2022-09-10T07:01:42.383Z,15.30
2022-09-10T07:04:09.955Z,15.30
2022-09-10T07:06:38.277Z,15.30
2022-09-10T07:09:09.523Z,15.40
2022-09-10T07:11:43.923Z,15.50
2022-09-10T07:14:13.859Z,15.60
2022-09-10T07:16:41.758Z,15.60
2022-09-10T07:19:12.200Z,15.70
2022-09-10T07:21:43.664Z,15.80
2022-09-10T07:24:14.365Z,16.00
2022-09-10T07:29:57.436Z,16.80
2022-09-10T07:32:25.435Z,17.00
2022-09-10T07:35:01.544Z,16.90
2022-09-10T07:37:30.419Z,16.80
2022-09-10T07:39:57.985Z,16.70
2022-09-10T07:42:26.690Z,16.70
2022-09-10T07:44:54.114Z,16.60
2022-09-10T07:47:22.138Z,16.70
2022-09-10T07:49:49.734Z,16.70
2022-09-10T07:52:18.552Z,16.70
2022-09-10T07:54:49.966Z,16.60
2022-09-10T07:57:17.474Z,16.50
2022-09-10T07:59:44.806Z,16.50
2022-09-10T08:02:15.496Z,16.60
2022-09-10T08:04:46.982Z,16.70
2022-09-10T08:07:17.165Z,16.70
2022-09-10T08:09:44.440Z,16.80
2022-09-10T08:12:17.300Z,16.60
2022-09-10T08:14:45.587Z,16.50
2022-09-10T08:17:13.814Z,16.40
2022-09-10T08:19:44.425Z,16.10
2022-09-10T08:22:13.632Z,16.00
2022-09-10T08:24:47.782Z,15.90
2022-09-10T08:27:16.427Z,15.90
2022-09-10T08:29:44.472Z,15.90
2022-09-10T08:32:14.563Z,15.90
2022-09-10T08:34:42.177Z,15.80
2022-09-10T08:37:12.463Z,15.80
2022-09-10T08:39:40.566Z,15.80
2022-09-10T08:42:10.935Z,15.80
2022-09-10T08:44:50.005Z,15.90
2022-09-10T08:47:44.410Z,16.00
2022-09-10T08:50:36.172Z,16.00
2022-09-10T08:53:12.628Z,16.10
2022-09-10T08:55:46.030Z,16.20
2022-09-10T08:58:39.230Z,16.20
2022-09-10T09:01:11.461Z,16.10
2022-09-10T09:03:47.075Z,16.30
2022-09-10T09:06:26.902Z,16.30
2022-09-10T09:08:55.088Z,16.30
2022-09-10T09:12:02.048Z,16.30
2022-09-10T09:15:28.887Z,16.40
2022-09-10T09:18:15.410Z,16.40
2022-09-10T09:20:57.881Z,16.40
2022-09-10T09:24:13.312Z,16.30
2022-09-10T09:26:47.436Z,16.30
2022-09-10T09:29:25.544Z,16.20
2022-09-10T09:32:00.391Z,16.20
2022-09-10T09:34:36.152Z,16.30
2022-09-10T09:37:05.021Z,16.10
2022-09-10T09:39:43.479Z,16.00
2022-09-10T09:42:14.548Z,16.00
2022-09-10T09:44:48.878Z,16.00
2022-09-10T09:47:16.403Z,16.00
2022-09-10T09:49:45.119Z,16.00
2022-09-10T09:52:32.931Z,16.10
2022-09-10T09:55:20.408Z,16.20
2022-09-10T09:57:47.825Z,16.20
2022-09-10T10:00:37.104Z,16.20
2022-09-10T10:03:20.425Z,16.30
2022-09-10T10:05:48.661Z,16.30
2022-09-10T10:08:37.653Z,16.40
2022-09-10T10:11:05.465Z,16.60
2022-09-10T10:13:41.050Z,16.70
2022-09-10T10:16:33.769Z,16.80
2022-09-10T10:19:01.928Z,17.00
2022-09-10T10:21:34.279Z,17.10
2022-09-10T10:24:01.646Z,17.40
2022-09-10T10:26:35.280Z,17.70
2022-09-10T10:29:16.943Z,18.40
2022-09-10T10:31:46.925Z,18.50
2022-09-10T10:34:16.882Z,18.50
2022-09-10T10:37:15.994Z,18.60
2022-09-10T10:40:01.153Z,18.90
2022-09-10T10:42:54.090Z,19.40
2022-09-10T10:45:43.001Z,19.70
2022-09-10T10:48:36.831Z,19.50
2022-09-10T10:51:32.031Z,19.40
2022-09-10T10:54:20.449Z,19.10
2022-09-10T10:57:24.400Z,19.00
2022-09-10T11:00:09.488Z,18.60
2022-09-10T11:02:55.411Z,18.60
2022-09-10T11:05:37.491Z,18.80
2022-09-10T11:08:27.055Z,18.70
2022-09-10T11:11:01.622Z,18.70
2022-09-10T11:13:49.237Z,18.80
2022-09-10T11:16:20.182Z,18.90
2022-09-10T11:18:54.060Z,18.90
2022-09-10T11:21:58.782Z,19.00
2022-09-10T11:24:34.093Z,19.40
2022-09-10T11:27:33.325Z,19.50
2022-09-10T11:30:06.007Z,19.40
2022-09-10T11:32:55.675Z,19.40
2022-09-10T11:35:28.252Z,19.40
2022-09-10T11:38:27.675Z,19.40
2022-09-10T11:41:17.580Z,19.30
2022-09-10T11:44:06.740Z,19.20
2022-09-10T11:46:50.277Z,19.10
2022-09-10T11:49:24.343Z,18.90
2022-09-10T11:51:51.877Z,18.60
2022-09-10T11:54:29.111Z,18.40
2022-09-10T11:57:26.575Z,18.40
2022-09-10T12:00:12.360Z,18.60
2022-09-10T12:03:09.372Z,18.90
2022-09-10T12:05:56.268Z,19.00
2022-09-10T12:09:00.957Z,19.20
2022-09-10T12:11:32.385Z,19.30
2022-09-10T12:14:05.072Z,19.40
2022-09-10T12:16:42.226Z,19.40
2022-09-10T12:19:26.771Z,19.20
2022-09-10T12:22:16.895Z,19.00
2022-09-10T12:24:54.576Z,19.00
2022-09-10T12:27:29.522Z,18.70
2022-09-10T12:29:56.754Z,18.40
2022-09-10T12:32:28.677Z,18.30
2022-09-10T12:35:40.111Z,18.10
2022-09-10T12:38:44.452Z,18.10
2022-09-10T12:41:25.390Z,17.80
2022-09-10T12:44:34.684Z,17.70
2022-09-10T12:47:16.934Z,17.80
2022-09-10T12:49:57.865Z,18.00
2022-09-10T12:52:52.159Z,18.20
2022-09-10T12:55:51.177Z,18.30
2022-09-10T12:58:39.982Z,18.10
2022-09-10T13:01:35.724Z,18.50
2022-09-10T13:04:03.867Z,18.90
2022-09-10T13:06:49.519Z,19.20
2022-09-10T13:09:25.378Z,18.90
2022-09-10T13:11:56.522Z,18.40
2022-09-10T13:14:28.885Z,18.10
2022-09-10T13:16:56.481Z,17.60
2022-09-10T13:19:23.664Z,17.60
2022-09-10T13:21:54.764Z,17.70
2022-09-10T13:24:34.486Z,17.80
2022-09-10T13:27:43.497Z,18.00
2022-09-10T13:30:21.863Z,18.00
2022-09-10T13:32:58.888Z,18.10
2022-09-10T13:35:41.870Z,18.30
2022-09-10T13:38:36.351Z,18.30
2022-09-10T13:41:22.363Z,18.40
2022-09-10T13:44:04.893Z,18.60
2022-09-10T13:46:43.746Z,18.70
2022-09-10T13:49:19.979Z,18.60
2022-09-10T13:51:56.905Z,18.50
2022-09-10T13:54:35.826Z,18.50
2022-09-10T13:57:14.786Z,18.50
2022-09-10T13:59:47.887Z,18.50
2022-09-10T14:02:16.184Z,18.60
2022-09-10T14:04:45.193Z,18.80
2022-09-10T14:07:38.625Z,18.90
2022-09-10T14:10:06.847Z,19.10
2022-09-10T14:12:35.652Z,19.10
2022-09-10T14:15:05.554Z,19.30
2022-09-10T14:17:43.093Z,19.30
2022-09-10T14:20:25.117Z,19.30
2022-09-10T14:23:04.270Z,19.20
2022-09-10T14:25:40.696Z,19.20
2022-09-10T14:28:16.881Z,19.20
2022-09-10T14:30:45.912Z,19.00
2022-09-10T14:33:33.624Z,18.90
2022-09-10T14:36:31.261Z,18.90
2022-09-10T14:39:19.906Z,18.90
2022-09-10T14:41:47.857Z,18.60
2022-09-10T14:44:42.231Z,18.50
2022-09-10T14:47:10.095Z,18.40
2022-09-10T14:49:40.714Z,18.40
2022-09-10T14:52:11.162Z,18.40
2022-09-10T14:54:38.537Z,18.40
2022-09-10T14:57:13.727Z,18.40
2022-09-10T14:59:46.261Z,18.50
2022-09-10T15:02:24.492Z,18.50
2022-09-10T15:04:51.884Z,18.50
2022-09-10T15:07:19.444Z,18.60
2022-09-10T15:09:53.685Z,18.60
2022-09-10T15:12:26.439Z,18.60
2022-09-10T15:14:54.102Z,18.50
2022-09-10T15:17:21.459Z,18.50
2022-09-10T15:19:48.806Z,18.40
2022-09-10T15:22:27.979Z,18.30
2022-09-10T15:25:11.663Z,18.30
2022-09-10T15:27:39.337Z,18.20
2022-09-10T15:30:07.215Z,18.10
2022-09-10T15:32:34.436Z,17.90
2022-09-10T15:35:01.851Z,17.80
2022-09-10T15:37:29.143Z,17.70
2022-09-10T15:39:58.349Z,17.70
2022-09-10T15:42:25.839Z,17.70
2022-09-10T15:44:53.115Z,17.60
2022-09-10T15:47:20.378Z,17.50
2022-09-10T15:49:47.797Z,17.40
2022-09-10T15:52:15.002Z,17.30
2022-09-10T15:54:43.101Z,17.30
2022-09-10T15:57:10.414Z,17.40
2022-09-10T15:59:37.689Z,17.40
2022-09-10T16:02:06.166Z,17.50
2022-09-10T16:04:36.182Z,17.60
2022-09-10T16:07:04.892Z,17.60
2022-09-10T16:09:32.452Z,17.70
2022-09-10T16:11:59.965Z,17.60
2022-09-10T16:14:27.478Z,17.70
2022-09-10T16:16:54.779Z,17.80
2022-09-10T16:19:22.249Z,17.80
2022-09-10T16:21:49.946Z,17.80
2022-09-10T16:24:17.183Z,18.00
2022-09-10T16:26:45.869Z,18.20
2022-09-10T16:29:19.398Z,18.30
2022-09-10T16:31:47.148Z,18.30
2022-09-10T16:34:18.359Z,18.40
2022-09-10T16:36:48.855Z,18.50
2022-09-10T16:39:17.979Z,18.60
2022-09-10T16:41:47.434Z,18.50
2022-09-10T16:44:16.569Z,18.50
2022-09-10T16:46:44.761Z,18.40
2022-09-10T16:49:14.329Z,18.30
2022-09-10T16:51:42.976Z,18.20
2022-09-10T16:54:13.515Z,18.10
2022-09-10T16:56:42.997Z,18.00
2022-09-10T16:59:22.567Z,17.90
2022-09-10T17:01:51.908Z,17.80
2022-09-10T17:04:27.534Z,17.60
2022-09-10T17:06:57.278Z,17.50
2022-09-10T17:09:25.120Z,17.40
2022-09-10T17:11:52.635Z,17.30
2022-09-10T17:14:19.965Z,17.20
2022-09-10T17:16:48.372Z,17.00
2022-09-10T17:19:23.564Z,16.90
2022-09-10T17:21:53.118Z,16.90
2022-09-10T17:24:22.639Z,16.80
2022-09-10T17:26:51.061Z,16.70
2022-09-10T17:29:24.345Z,16.60
2022-09-10T17:31:52.497Z,16.50
2022-09-10T17:34:21.394Z,16.40
2022-09-10T17:36:49.310Z,16.30
2022-09-10T17:39:17.331Z,16.30
2022-09-10T17:41:45.387Z,16.20
2022-09-10T17:44:13.465Z,16.20
2022-09-10T17:46:42.725Z,16.10
2022-09-10T17:49:13.092Z,16.10
2022-09-10T17:51:40.868Z,16.10
2022-09-10T17:54:08.603Z,16.20
2022-09-10T17:56:37.833Z,16.30
2022-09-10T17:59:05.740Z,16.30
2022-09-10T18:01:39.003Z,16.30
2022-09-10T18:04:07.716Z,16.30
2022-09-10T18:06:36.323Z,16.30
2022-09-10T18:09:05.233Z,16.30
2022-09-10T18:11:35.680Z,16.30
2022-09-10T18:14:03.452Z,16.30
2022-09-10T18:16:33.162Z,16.30
2022-09-10T18:19:14.472Z,16.30
2022-09-10T18:21:43.768Z,16.20
2022-09-10T18:24:17.399Z,16.30
2022-09-10T18:26:49.219Z,16.30
2022-09-10T18:29:21.296Z,16.20
2022-09-10T18:31:51.174Z,16.20
2022-09-10T18:34:23.390Z,16.20
2022-09-10T18:36:55.317Z,16.20
2022-09-10T18:39:24.232Z,16.20
2022-09-10T18:41:52.050Z,16.20
2022-09-10T18:44:24.858Z,16.20
2022-09-10T18:46:53.131Z,16.20
2022-09-10T18:49:23.370Z,16.20
2022-09-10T18:51:52.110Z,16.20
2022-09-10T18:54:21.322Z,16.20
2022-09-10T18:56:49.904Z,16.10
2022-09-10T18:59:21.898Z,16.10
2022-09-10T19:01:51.470Z,16.10
2022-09-10T19:04:21.653Z,16.10
2022-09-10T19:06:49.724Z,16.10
2022-09-10T19:09:29.051Z,16.20
2022-09-10T19:11:58.463Z,16.10
2022-09-10T19:14:29.262Z,16.20
2022-09-10T19:16:58.726Z,16.10
2022-09-10T19:19:28.731Z,16.20
2022-09-10T19:22:03.554Z,16.20
2022-09-10T19:24:54.180Z,16.20
2022-09-10T19:27:18.369Z,16.20
2022-09-10T19:29:47.280Z,16.20
2022-09-10T19:32:15.170Z,16.10
2022-09-10T19:34:42.676Z,16.00
2022-09-10T19:37:10.102Z,16.00
2022-09-10T19:39:38.388Z,15.90
2022-09-10T19:42:06.710Z,15.80
2022-09-10T19:44:33.998Z,15.80
2022-09-10T19:47:03.936Z,15.80
2022-09-10T19:49:31.571Z,15.80
2022-09-10T19:51:58.795Z,15.80
2022-09-10T19:54:28.159Z,15.80
2022-09-10T19:56:56.437Z,15.80
2022-09-10T19:59:23.749Z,15.80
2022-09-10T20:01:51.159Z,15.90
2022-09-10T20:04:18.851Z,15.90
2022-09-10T20:06:47.594Z,16.00
2022-09-10T20:09:14.885Z,16.00
2022-09-10T20:11:42.128Z,16.00
2022-09-10T20:14:14.309Z,16.00
2022-09-10T20:16:45.236Z,16.00
2022-09-10T20:19:16.450Z,16.00
2022-09-10T20:21:44.425Z,16.00
2022-09-10T20:24:11.739Z,16.10
2022-09-10T20:26:41.154Z,16.10
2022-09-10T20:29:12.739Z,16.10
2022-09-10T20:31:41.464Z,16.10
2022-09-10T20:34:19.311Z,16.10
2022-09-10T20:36:53.880Z,16.10
2022-09-10T20:39:25.175Z,16.10
2022-09-10T20:41:52.837Z,16.10
2022-09-10T20:44:20.767Z,16.10
2022-09-10T20:46:48.058Z,16.10
2022-09-10T20:49:16.374Z,16.10
2022-09-10T20:51:44.682Z,16.10
2022-09-10T20:54:14.494Z,16.10
2022-09-10T20:56:42.198Z,16.10
2022-09-10T20:59:12.050Z,16.10
2022-09-10T21:01:39.391Z,16.10
2022-09-10T21:04:06.749Z,16.10
2022-09-10T21:06:35.178Z,16.20
2022-09-10T21:09:03.919Z,16.20
2022-09-10T21:11:33.152Z,16.10
2022-09-10T21:14:02.431Z,16.10
2022-09-10T21:16:35.579Z,16.10
2022-09-10T21:19:09.163Z,16.10
2022-09-10T21:21:39.400Z,16.10
2022-09-10T21:24:10.077Z,16.10
2022-09-10T21:26:39.348Z,16.10
2022-09-10T21:29:18.457Z,16.10
2022-09-10T21:31:46.690Z,16.00
2022-09-10T21:34:14.732Z,16.00
2022-09-10T21:36:46.191Z,16.00
2022-09-10T21:39:15.869Z,16.00
2022-09-10T21:41:48.095Z,16.00
2022-09-10T21:44:17.669Z,16.00
2022-09-10T21:46:45.931Z,16.00
2022-09-10T21:49:13.463Z,16.00
2022-09-10T21:51:41.401Z,16.00
2022-09-10T21:54:14.577Z,15.90
2022-09-10T21:56:41.882Z,15.90
2022-09-10T21:59:11.009Z,16.00
2022-09-10T22:01:41.246Z,15.90
2022-09-10T22:04:08.764Z,15.90
2022-09-10T22:06:36.205Z,15.90
2022-09-10T22:09:09.708Z,15.90
2022-09-10T22:11:40.559Z,15.90
2022-09-10T22:14:22.771Z,15.90
2022-09-10T22:16:51.027Z,16.00
2022-09-10T22:19:21.640Z,15.90
2022-09-10T22:21:49.022Z,16.00
2022-09-10T22:24:19.381Z,16.00
2022-09-10T22:26:47.598Z,16.00
2022-09-10T22:29:22.155Z,16.00
2022-09-10T22:31:50.102Z,16.00
2022-09-10T22:34:17.982Z,16.00
2022-09-10T22:36:47.078Z,15.90
2022-09-10T22:39:17.239Z,15.90
2022-09-10T22:41:45.911Z,15.90
2022-09-10T22:44:13.699Z,15.80
2022-09-10T22:46:41.607Z,15.70
2022-09-10T22:49:12.477Z,15.70
2022-09-10T22:51:43.411Z,15.60
2022-09-10T22:54:11.010Z,15.50
2022-09-10T22:56:38.718Z,15.50
2022-09-10T22:59:06.908Z,15.30
2022-09-10T23:01:36.601Z,15.20
2022-09-10T23:04:05.017Z,15.20
2022-09-10T23:06:33.877Z,15.20
2022-09-10T23:09:07.723Z,15.10
2022-09-10T23:11:37.515Z,14.90
2022-09-10T23:14:08.081Z,14.90
2022-09-10T23:16:40.522Z,14.80
2022-09-10T23:19:14.706Z,14.80
2022-09-10T23:21:47.952Z,14.80
2022-09-10T23:24:17.439Z,14.80
2022-09-10T23:26:45.140Z,14.80
2022-09-10T23:29:14.117Z,14.70
2022-09-10T23:31:41.415Z,14.60
2022-09-10T23:34:20.071Z,14.60
2022-09-10T23:36:48.894Z,14.50
2022-09-10T23:39:20.981Z,14.50
2022-09-10T23:41:50.030Z,14.50
2022-09-10T23:44:17.456Z,14.40
2022-09-10T23:46:45.030Z,14.40
2022-09-10T23:49:15.538Z,14.30
2022-09-10T23:51:42.953Z,14.40
2022-09-10T23:54:11.367Z,14.30
2022-09-10T23:56:39.914Z,14.30
2022-09-10T23:59:07.772Z,14.20
